Time;durP1;ratioP1;P1;durP2;ratioP2;P2;SDS_P1;SDS_P2;PMS_P1;PMS_P2;Temp;Humidity;BMP_temperature;BMP_pressure;BME280_temperature;BME280_humidity;BME280_pressure;Samples;Min_cycle;Max_cycle;Signal;HPM_P1;HPM_P2
2021/10/11 00:02:13;;;;;;;1.17;1.15;;;10.00;99.90;;;;;;5009685;28;20206;-75
2021/10/11 00:04:38;;;;;;;0.68;0.68;;;10.00;99.90;;;;;;4996242;28;20198;-75
2021/10/11 00:07:06;;;;;;;1.55;1.45;;;9.90;99.90;;;;;;5024235;28;20209;-76
2021/10/11 00:09:32;;;;;;;2.58;2.33;;;9.90;99.90;;;;;;5009194;28;20206;-75
2021/10/11 00:11:57;;;;;;;4.40;1.30;;;9.90;99.90;;;;;;5010905;28;20249;-76
2021/10/11 00:14:24;;;;;;;1.00;1.00;;;9.90;99.90;;;;;;5014479;28;20246;-75
2021/10/11 00:16:50;;;;;;;6.40;1.48;;;9.80;99.90;;;;;;5013163;28;20202;-76
2021/10/11 00:19:16;;;;;;;1.02;1.02;;;9.80;99.90;;;;;;4996881;28;20305;-76
2021/10/11 00:21:41;;;;;;;1.00;0.80;;;9.80;99.90;;;;;;4996959;28;20289;-75
2021/10/11 00:24:07;;;;;;;1.50;1.13;;;9.80;99.90;;;;;;5014376;28;20582;-75
2021/10/11 00:26:33;;;;;;;0.65;0.65;;;9.90;99.90;;;;;;5014246;28;20203;-76
2021/10/11 00:28:58;;;;;;;2.60;1.13;;;9.90;99.90;;;;;;5026004;28;20198;-76
2021/10/11 00:31:24;;;;;;;2.03;1.20;;;9.90;99.90;;;;;;5014669;28;20214;-76
2021/10/11 00:33:50;;;;;;;3.00;1.98;;;9.90;99.90;;;;;;4996649;28;20210;-76
2021/10/11 00:36:15;;;;;;;0.85;0.85;;;9.90;99.90;;;;;;5015477;28;20214;-76
2021/10/11 00:38:41;;;;;;;4.15;2.58;;;9.90;99.90;;;;;;5002439;28;20206;-75
2021/10/11 00:41:07;;;;;;;1.13;1.10;;;9.90;99.90;;;;;;5022426;28;20202;-75
2021/10/11 00:43:33;;;;;;;0.77;0.70;;;9.90;99.90;;;;;;5022159;28;20199;-75
2021/10/11 00:45:58;;;;;;;2.90;1.23;;;9.90;99.90;;;;;;5019031;28;20202;-75
2021/10/11 00:48:24;;;;;;;0.60;0.60;;;9.90;99.90;;;;;;5022156;28;20202;-75
2021/10/11 00:50:51;;;;;;;0.90;0.90;;;9.90;99.90;;;;;;5017844;28;20217;-75
2021/10/11 00:53:19;;;;;;;0.75;0.75;;;10.00;99.90;;;;;;5029838;28;20541;-75
2021/10/11 00:55:44;;;;;;;2.92;1.33;;;10.00;99.90;;;;;;5027401;28;20202;-75
2021/10/11 00:58:10;;;;;;;2.70;1.83;;;10.00;99.90;;;;;;5013493;28;20230;-75
2021/10/11 01:00:36;;;;;;;2.28;1.33;;;10.10;99.90;;;;;;5029687;28;20250;-76
2021/10/11 01:03:01;;;;;;;0.73;0.73;;;10.10;99.90;;;;;;5038142;23;20320;-72
2021/10/11 01:05:27;;;;;;;1.13;0.95;;;10.10;99.90;;;;;;5053811;28;20282;-71
2021/10/11 01:07:53;;;;;;;0.88;0.88;;;10.00;99.90;;;;;;5051921;28;20664;-71
2021/10/11 01:10:19;;;;;;;1.17;1.15;;;10.00;99.90;;;;;;5053815;28;20213;-71
2021/10/11 01:12:44;;;;;;;1.15;1.15;;;10.00;99.90;;;;;;5052257;28;20284;-70
2021/10/11 01:15:10;;;;;;;0.75;0.75;;;10.00;99.90;;;;;;5051664;28;20221;-70
2021/10/11 01:17:36;;;;;;;0.70;0.70;;;10.10;99.90;;;;;;5053371;28;20212;-70
2021/10/11 01:20:02;;;;;;;0.80;0.80;;;10.00;99.90;;;;;;5052276;28;20214;-70
2021/10/11 01:22:40;;;;;;;1.55;1.45;;;10.10;99.90;;;;;;5053275;28;20679;-70
2021/10/11 01:25:07;;;;;;;3.13;1.63;;;10.10;99.90;;;;;;5052881;28;20251;-70
2021/10/11 01:27:34;;;;;;;3.25;1.30;;;10.10;99.90;;;;;;5052951;28;20205;-71
2021/10/11 01:29:59;;;;;;;1.05;0.90;;;10.10;99.90;;;;;;5033948;28;20213;-71
2021/10/11 01:32:25;;;;;;;0.60;0.60;;;10.10;99.90;;;;;;5034858;28;20212;-71
2021/10/11 01:34:52;;;;;;;0.70;0.70;;;10.20;99.90;;;;;;5053680;28;20209;-70
2021/10/11 01:37:18;;;;;;;0.90;0.90;;;10.20;99.90;;;;;;5050827;28;20247;-70
2021/10/11 01:39:44;;;;;;;1.40;1.05;;;10.10;99.90;;;;;;5033107;28;20237;-70
2021/10/11 01:42:10;;;;;;;1.95;1.60;;;10.20;99.90;;;;;;5053612;28;20208;-70
2021/10/11 01:44:36;;;;;;;0.80;0.80;;;10.20;99.90;;;;;;5053102;28;20202;-70
2021/10/11 01:47:02;;;;;;;3.45;1.88;;;10.20;99.90;;;;;;5032599;28;20193;-70
2021/10/11 01:49:28;;;;;;;1.30;1.20;;;10.20;99.90;;;;;;5052230;28;20245;-69
2021/10/11 01:51:54;;;;;;;0.88;0.88;;;10.20;99.90;;;;;;5053320;28;20229;-70
2021/10/11 01:54:20;;;;;;;1.65;1.20;;;10.20;99.90;;;;;;5052033;28;20582;-70
2021/10/11 01:56:46;;;;;;;1.33;1.20;;;10.20;99.90;;;;;;5053203;28;20706;-70
2021/10/11 01:59:12;;;;;;;1.55;1.45;;;10.10;99.90;;;;;;5052153;28;20193;-70
2021/10/11 02:01:37;;;;;;;17.92;1.50;;;10.10;99.90;;;;;;5049099;28;20202;-70
2021/10/11 02:04:03;;;;;;;0.80;0.80;;;10.10;99.90;;;;;;5033977;28;20308;-70
2021/10/11 02:06:29;;;;;;;2.20;2.00;;;10.00;99.90;;;;;;5036148;28;20229;-70
2021/10/11 02:08:55;;;;;;;0.65;0.65;;;10.10;99.90;;;;;;5052960;28;20213;-70
2021/10/11 02:11:21;;;;;;;1.15;0.90;;;10.00;99.90;;;;;;5052758;28;20693;-70
2021/10/11 02:13:46;;;;;;;0.60;0.60;;;9.90;99.90;;;;;;5052463;28;20212;-70
2021/10/11 02:16:12;;;;;;;0.85;0.85;;;9.80;99.90;;;;;;5051421;28;20228;-70
2021/10/11 02:18:38;;;;;;;0.88;0.88;;;9.70;99.90;;;;;;5052635;28;20245;-69
2021/10/11 02:21:03;;;;;;;1.10;1.10;;;9.60;99.90;;;;;;5052588;28;20209;-70
2021/10/11 02:23:29;;;;;;;0.70;0.70;;;9.50;99.90;;;;;;5051500;28;20277;-70
2021/10/11 02:25:55;;;;;;;1.30;1.20;;;9.40;99.90;;;;;;5052736;28;20260;-70
2021/10/11 02:28:21;;;;;;;1.77;0.73;;;9.20;99.90;;;;;;5052542;28;20284;-70
2021/10/11 02:30:47;;;;;;;0.60;0.60;;;9.10;99.90;;;;;;5051354;28;20259;-70
2021/10/11 02:33:12;;;;;;;0.95;0.95;;;9.00;99.90;;;;;;5051502;28;20579;-70
2021/10/11 02:35:38;;;;;;;0.70;0.70;;;8.90;99.90;;;;;;5050775;28;20205;-70
2021/10/11 02:38:04;;;;;;;0.70;0.70;;;8.70;99.90;;;;;;5050668;28;20741;-70
2021/10/11 02:40:30;;;;;;;0.93;0.85;;;8.60;99.90;;;;;;5050846;28;20205;-70
2021/10/11 02:42:55;;;;;;;1.60;0.80;;;8.40;99.90;;;;;;5034825;28;20198;-70
2021/10/11 02:45:21;;;;;;;0.85;0.85;;;8.40;99.90;;;;;;5052135;28;20236;-70
2021/10/11 02:47:47;;;;;;;0.65;0.65;;;8.30;99.90;;;;;;5052777;28;20208;-70
2021/10/11 02:50:12;;;;;;;0.75;0.70;;;8.20;99.90;;;;;;5052981;28;20236;-70
2021/10/11 02:52:38;;;;;;;0.80;0.80;;;8.00;99.90;;;;;;5052296;28;20679;-70
2021/10/11 02:55:05;;;;;;;0.57;0.57;;;7.90;99.90;;;;;;5034459;28;20201;-70
2021/10/11 02:57:31;;;;;;;1.65;1.05;;;7.90;99.90;;;;;;5050678;28;20612;-70
2021/10/11 02:59:57;;;;;;;0.60;0.60;;;7.80;99.90;;;;;;5052872;28;20205;-70
2021/10/11 03:02:23;;;;;;;0.70;0.70;;;7.70;99.90;;;;;;5039237;28;20226;-70
2021/10/11 03:04:52;;;;;;;1.70;1.23;;;7.50;99.90;;;;;;5030909;28;20229;-70
2021/10/11 03:07:18;;;;;;;0.77;0.77;;;7.50;99.90;;;;;;5031103;28;20205;-70
2021/10/11 03:09:44;;;;;;;0.60;0.60;;;7.50;99.90;;;;;;5030928;28;20206;-70
2021/10/11 03:12:11;;;;;;;0.60;0.60;;;7.40;99.90;;;;;;5031900;28;20263;-70
2021/10/11 03:14:37;;;;;;;0.77;0.77;;;7.30;99.90;;;;;;5013296;28;20212;-70
2021/10/11 03:17:02;;;;;;;1.00;0.90;;;7.20;99.90;;;;;;5014581;28;20676;-70
2021/10/11 03:19:28;;;;;;;0.65;0.65;;;7.10;99.90;;;;;;5031595;28;20231;-70
2021/10/11 03:21:54;;;;;;;1.00;1.00;;;7.00;99.90;;;;;;5030829;28;20693;-70
2021/10/11 03:24:19;;;;;;;1.05;1.05;;;6.90;99.90;;;;;;5031937;28;20297;-70
2021/10/11 03:26:45;;;;;;;0.60;0.60;;;6.80;99.90;;;;;;5031002;28;20340;-70
2021/10/11 03:29:11;;;;;;;1.00;1.00;;;6.70;99.90;;;;;;5029830;28;20243;-71
2021/10/11 03:31:36;;;;;;;0.50;0.50;;;6.70;99.90;;;;;;5031814;28;20288;-71
2021/10/11 03:34:04;;;;;;;0.50;0.50;;;6.70;99.90;;;;;;5032123;28;20238;-70
2021/10/11 03:36:29;;;;;;;0.70;0.70;;;6.60;99.90;;;;;;5029882;28;20202;-70
2021/10/11 03:38:55;;;;;;;1.13;1.10;;;6.50;99.90;;;;;;5031853;28;20229;-70
2021/10/11 03:41:21;;;;;;;0.75;0.75;;;6.50;99.90;;;;;;5032083;28;20293;-70
2021/10/11 03:43:46;;;;;;;0.65;0.65;;;6.40;99.90;;;;;;5032197;28;20249;-70
2021/10/11 03:46:12;;;;;;;0.50;0.50;;;6.30;99.90;;;;;;5030275;28;20227;-70
2021/10/11 03:48:37;;;;;;;0.70;0.70;;;6.40;99.90;;;;;;5033357;28;20570;-70
2021/10/11 03:51:03;;;;;;;1.10;0.98;;;6.40;99.90;;;;;;5035795;28;20206;-70
2021/10/11 03:53:29;;;;;;;0.60;0.60;;;6.40;99.90;;;;;;5035815;28;20609;-70
2021/10/11 03:55:54;;;;;;;1.27;1.02;;;6.30;99.90;;;;;;5035778;28;20201;-70
2021/10/11 03:58:20;;;;;;;1.35;1.25;;;6.20;99.90;;;;;;5033689;28;20288;-70
2021/10/11 04:00:46;;;;;;;2.65;1.35;;;6.10;99.90;;;;;;5018311;28;20214;-70
2021/10/11 04:03:12;;;;;;;0.50;0.50;;;6.00;99.90;;;;;;5040818;28;20663;-70
2021/10/11 04:05:37;;;;;;;0.60;0.60;;;6.00;99.90;;;;;;5051332;28;20197;-70
2021/10/11 04:08:14;;;;;;;0.70;0.70;;;6.00;99.90;;;;;;5047093;28;20199;-71
2021/10/11 04:11:08;;;;;;;0.50;0.50;;;6.00;99.90;;;;;;5036147;28;20204;-71
2021/10/11 04:13:27;;;;;;;0.68;0.68;;;6.00;99.90;;;;;;5040546;28;20259;-70
2021/10/11 04:15:52;;;;;;;0.50;0.50;;;5.90;99.90;;;;;;5051219;28;20206;-71
2021/10/11 04:18:18;;;;;;;0.98;0.98;;;5.90;99.90;;;;;;5049843;28;20582;-71
2021/10/11 04:20:45;;;;;;;2.63;1.13;;;5.90;99.90;;;;;;5048234;28;20214;-71
2021/10/11 04:23:11;;;;;;;0.60;0.60;;;5.80;99.90;;;;;;5036410;28;20680;-70
2021/10/11 04:25:37;;;;;;;0.65;0.65;;;5.70;99.90;;;;;;5049595;28;20213;-70
2021/10/11 04:28:03;;;;;;;2.40;1.38;;;5.70;99.90;;;;;;5033980;28;20206;-71
2021/10/11 04:30:29;;;;;;;0.70;0.70;;;5.60;99.90;;;;;;5034436;28;20202;-71
2021/10/11 04:32:55;;;;;;;0.70;0.70;;;5.50;99.90;;;;;;5035407;28;20232;-71
2021/10/11 04:35:25;;;;;;;0.60;0.60;;;5.40;99.90;;;;;;5016718;28;20210;-70
2021/10/11 04:37:51;;;;;;;0.82;0.70;;;5.40;99.90;;;;;;5035324;28;20229;-71
2021/10/11 04:40:18;;;;;;;0.60;0.60;;;5.30;99.90;;;;;;5052139;28;20692;-70
2021/10/11 04:42:44;;;;;;;1.10;1.05;;;5.30;99.90;;;;;;5051448;28;20252;-70
2021/10/11 04:45:11;;;;;;;0.70;0.70;;;5.20;99.90;;;;;;5037340;28;20206;-70
2021/10/11 04:47:37;;;;;;;0.50;0.50;;;5.30;99.90;;;;;;5032900;28;20208;-70
2021/10/11 04:50:03;;;;;;;0.52;0.52;;;5.30;99.90;;;;;;5039412;28;20202;-70
2021/10/11 04:52:29;;;;;;;0.70;0.70;;;5.30;99.90;;;;;;5021234;28;20338;-70
2021/10/11 04:54:54;;;;;;;0.73;0.73;;;5.40;99.90;;;;;;5024789;28;20670;-70
2021/10/11 04:57:20;;;;;;;0.68;0.68;;;5.30;99.90;;;;;;5043623;28;20209;-70
2021/10/11 04:59:46;;;;;;;0.70;0.70;;;5.30;99.90;;;;;;5048552;28;20209;-73
2021/10/11 05:02:11;;;;;;;0.50;0.50;;;5.20;99.90;;;;;;5047743;28;20284;-72
2021/10/11 05:04:37;;;;;;;0.85;0.85;;;5.10;99.90;;;;;;5062988;28;20205;-71
2021/10/11 05:07:03;;;;;;;0.90;0.90;;;5.00;99.90;;;;;;5034728;28;20197;-72
2021/10/11 05:09:29;;;;;;;1.67;1.58;;;5.00;99.90;;;;;;5036429;28;20201;-71
2021/10/11 05:11:55;;;;;;;0.70;0.70;;;5.00;99.90;;;;;;5052681;28;20208;-71
2021/10/11 05:14:20;;;;;;;0.70;0.70;;;4.90;99.90;;;;;;5052742;28;20205;-71
2021/10/11 05:16:47;;;;;;;1.00;1.00;;;4.80;99.90;;;;;;5052939;28;20664;-72
2021/10/11 05:19:12;;;;;;;0.52;0.52;;;4.70;99.90;;;;;;5019018;28;20576;-71
2021/10/11 05:21:38;;;;;;;0.70;0.70;;;4.70;99.90;;;;;;5053962;28;20256;-71
2021/10/11 05:24:04;;;;;;;0.60;0.60;;;4.70;99.90;;;;;;5036295;28;20700;-71
2021/10/11 05:26:31;;;;;;;0.85;0.85;;;4.60;99.90;;;;;;5053635;28;20232;-71
2021/10/11 05:28:58;;;;;;;0.90;0.90;;;4.60;99.90;;;;;;5053040;28;20315;-71
2021/10/11 05:31:24;;;;;;;0.60;0.60;;;4.60;99.90;;;;;;5037395;28;20210;-71
2021/10/11 05:33:50;;;;;;;0.47;0.47;;;4.50;99.90;;;;;;5052816;28;20259;-71
2021/10/11 05:36:16;;;;;;;0.70;0.70;;;4.50;99.90;;;;;;5047935;28;20221;-72
2021/10/11 05:38:42;;;;;;;0.93;0.85;;;4.50;99.90;;;;;;5052540;28;20217;-74
2021/10/11 05:41:07;;;;;;;0.60;0.60;;;4.40;99.90;;;;;;5051289;28;20262;-71
2021/10/11 05:43:33;;;;;;;0.60;0.60;;;4.40;99.90;;;;;;5051419;28;20207;-71
2021/10/11 05:45:59;;;;;;;0.70;0.70;;;4.40;99.90;;;;;;5051230;28;20276;-71
2021/10/11 05:48:24;;;;;;;1.02;0.95;;;4.40;99.90;;;;;;5051140;28;20234;-72
2021/10/11 05:50:50;;;;;;;0.55;0.55;;;4.30;99.90;;;;;;5053043;28;20284;-71
2021/10/11 05:53:16;;;;;;;0.68;0.68;;;4.30;99.90;;;;;;5047505;28;20210;-71
2021/10/11 05:55:41;;;;;;;2.53;1.02;;;4.30;99.90;;;;;;5036844;28;20206;-71
2021/10/11 05:58:07;;;;;;;0.60;0.60;;;4.40;99.90;;;;;;5040881;28;20295;-71
2021/10/11 06:00:33;;;;;;;1.15;1.10;;;4.40;99.90;;;;;;5051731;28;20245;-71
2021/10/11 06:02:58;;;;;;;0.60;0.60;;;4.40;99.90;;;;;;5051416;28;20221;-71
2021/10/11 06:05:24;;;;;;;0.65;0.65;;;4.40;99.90;;;;;;5052692;28;20228;-71
2021/10/11 06:07:49;;;;;;;0.70;0.70;;;4.40;99.90;;;;;;5036241;28;20773;-71
2021/10/11 06:10:15;;;;;;;1.00;0.93;;;4.40;99.90;;;;;;5051521;28;20663;-71
2021/10/11 06:12:42;;;;;;;0.68;0.68;;;4.50;99.90;;;;;;5052737;28;20206;-71
2021/10/11 06:15:08;;;;;;;1.20;0.82;;;4.50;99.90;;;;;;5052750;28;20209;-71
2021/10/11 06:17:34;;;;;;;0.70;0.70;;;4.50;99.90;;;;;;5034507;28;20214;-75
2021/10/11 06:20:01;;;;;;;0.50;0.50;;;4.60;99.90;;;;;;5020236;28;20255;-71
2021/10/11 06:22:26;;;;;;;0.60;0.60;;;4.60;99.90;;;;;;5048966;28;20683;-71
2021/10/11 06:24:52;;;;;;;0.80;0.80;;;4.70;99.90;;;;;;5050394;28;20205;-71
2021/10/11 06:27:18;;;;;;;0.98;0.98;;;4.80;99.90;;;;;;5051440;28;20276;-71
2021/10/11 06:29:43;;;;;;;0.60;0.60;;;4.90;99.90;;;;;;5051779;28;20259;-72
2021/10/11 06:32:09;;;;;;;0.73;0.73;;;4.90;99.90;;;;;;5051624;28;20198;-71
2021/10/11 06:34:35;;;;;;;1.83;1.23;;;5.00;99.90;;;;;;5043126;28;20214;-71
2021/10/11 06:37:01;;;;;;;0.60;0.60;;;5.00;99.90;;;;;;5047127;28;20703;-71
2021/10/11 06:39:26;;;;;;;0.70;0.70;;;5.00;99.90;;;;;;5045025;28;20668;-71
2021/10/11 06:41:52;;;;;;;1.70;1.38;;;5.10;99.90;;;;;;5038624;28;20280;-71
2021/10/11 06:44:18;;;;;;;0.60;0.60;;;5.20;99.90;;;;;;5051309;28;20283;-71
2021/10/11 06:46:43;;;;;;;1.25;1.15;;;5.30;99.90;;;;;;5050277;28;20224;-71
2021/10/11 06:49:09;;;;;;;1.08;0.98;;;5.40;99.90;;;;;;5018399;28;20596;-71
2021/10/11 06:51:34;;;;;;;0.60;0.60;;;5.50;99.90;;;;;;5051724;28;20564;-71
2021/10/11 06:54:00;;;;;;;0.60;0.60;;;5.60;99.90;;;;;;5033348;28;20687;-71
2021/10/11 06:56:26;;;;;;;0.60;0.60;;;5.60;99.90;;;;;;5050687;28;20200;-72
2021/10/11 06:58:51;;;;;;;0.52;0.52;;;5.70;99.90;;;;;;5035169;28;20570;-71
2021/10/11 07:01:17;;;;;;;0.65;0.65;;;5.70;99.90;;;;;;5049942;28;20622;-71
2021/10/11 07:03:43;;;;;;;0.75;0.75;;;5.80;99.90;;;;;;5051480;28;20326;-71
2021/10/11 07:06:20;;;;;;;7.63;1.83;;;5.80;99.90;;;;;;5046466;28;20664;-71
2021/10/11 07:08:46;;;;;;;0.60;0.60;;;5.90;99.90;;;;;;5046979;28;20200;-71
2021/10/11 07:11:12;;;;;;;0.70;0.70;;;6.00;99.90;;;;;;5034420;28;20608;-71
2021/10/11 07:13:38;;;;;;;0.60;0.60;;;6.10;99.90;;;;;;5032283;28;20218;-71
2021/10/11 07:16:05;;;;;;;0.90;0.90;;;6.20;99.90;;;;;;5042556;28;20625;-71
2021/10/11 07:18:33;;;;;;;0.60;0.60;;;6.30;99.90;;;;;;5030442;28;20268;-71
2021/10/11 07:21:00;;;;;;;0.63;0.63;;;6.40;99.90;;;;;;5041620;28;20201;-71
2021/10/11 07:23:26;;;;;;;0.50;0.50;;;6.50;99.90;;;;;;5042013;28;20213;-71
2021/10/11 07:25:51;;;;;;;0.60;0.60;;;6.70;99.90;;;;;;5044763;28;20193;-71
2021/10/11 07:28:17;;;;;;;0.60;0.60;;;6.80;99.90;;;;;;5026985;28;20727;-71
2021/10/11 07:30:43;;;;;;;0.60;0.60;;;6.80;99.90;;;;;;5042479;28;20209;-71
2021/10/11 07:33:08;;;;;;;0.68;0.68;;;6.90;99.90;;;;;;5051015;28;20205;-71
2021/10/11 07:35:35;;;;;;;17.27;1.55;;;7.00;99.90;;;;;;5046948;28;20202;-72
2021/10/11 07:38:00;;;;;;;0.57;0.57;;;7.10;99.90;;;;;;5040423;28;20208;-72
2021/10/11 07:40:26;;;;;;;0.60;0.60;;;7.30;99.90;;;;;;5047321;28;20206;-72
2021/10/11 07:42:52;;;;;;;0.82;0.75;;;7.40;99.90;;;;;;5036938;28;20201;-72
2021/10/11 07:45:18;;;;;;;0.60;0.60;;;7.50;99.90;;;;;;5036476;28;20277;-71
2021/10/11 07:47:44;;;;;;;0.95;0.77;;;7.70;99.90;;;;;;5052649;28;20202;-71
2021/10/11 07:50:11;;;;;;;0.55;0.55;;;7.90;99.90;;;;;;5053269;28;20745;-72
2021/10/11 07:52:36;;;;;;;0.70;0.70;;;7.90;99.90;;;;;;5053429;28;20209;-71
2021/10/11 07:55:03;;;;;;;0.57;0.57;;;8.10;99.90;;;;;;5052263;28;20201;-71
2021/10/11 07:57:33;;;;;;;0.68;0.68;;;8.30;99.90;;;;;;5034699;28;20221;-72
2021/10/11 08:00:09;;;;;;;0.68;0.68;;;8.50;99.90;;;;;;5036881;28;20681;-72
2021/10/11 08:02:35;;;;;;;0.60;0.60;;;8.70;99.90;;;;;;5018983;28;20279;-72
2021/10/11 08:05:01;;;;;;;0.70;0.70;;;8.90;99.90;;;;;;5034141;28;20766;-73
2021/10/11 08:07:26;;;;;;;0.80;0.80;;;9.00;99.90;;;;;;5033772;28;20202;-71
2021/10/11 08:09:52;;;;;;;0.60;0.60;;;9.20;99.90;;;;;;5032864;28;20565;-72
2021/10/11 08:12:18;;;;;;;0.50;0.50;;;9.30;99.90;;;;;;5031467;28;20214;-72
2021/10/11 08:14:44;;;;;;;2.08;0.85;;;9.40;99.90;;;;;;5031565;28;20297;-72
2021/10/11 08:17:11;;;;;;;2.20;1.15;;;9.50;99.90;;;;;;5033870;28;20206;-72
2021/10/11 08:19:36;;;;;;;0.43;0.43;;;9.40;99.90;;;;;;5026400;28;20215;-71
2021/10/11 08:22:02;;;;;;;0.50;0.50;;;9.20;99.90;;;;;;5027801;28;20204;-74
2021/10/11 08:24:28;;;;;;;0.85;0.85;;;9.30;99.90;;;;;;5034602;28;20762;-72
2021/10/11 08:26:54;;;;;;;0.60;0.60;;;9.30;99.90;;;;;;5033923;28;20199;-71
2021/10/11 08:29:19;;;;;;;0.60;0.60;;;9.30;99.90;;;;;;5033149;28;20212;-72
2021/10/11 08:31:45;;;;;;;2.47;1.75;;;9.20;99.90;;;;;;5032321;28;20202;-71
2021/10/11 08:34:11;;;;;;;0.63;0.63;;;9.20;99.90;;;;;;5030674;28;20649;-71
2021/10/11 08:36:36;;;;;;;0.80;0.80;;;9.10;99.90;;;;;;5030048;28;20225;-71
2021/10/11 08:39:03;;;;;;;0.60;0.60;;;9.00;99.90;;;;;;5019200;28;20206;-71
2021/10/11 08:41:30;;;;;;;0.75;0.75;;;8.90;99.90;;;;;;5033468;28;20277;-71
2021/10/11 08:43:55;;;;;;;0.73;0.73;;;8.80;99.90;;;;;;5032414;28;20203;-71
2021/10/11 08:46:23;;;;;;;1.52;0.95;;;8.90;99.90;;;;;;5033294;28;20209;-72
2021/10/11 08:48:49;;;;;;;0.75;0.75;;;9.10;99.90;;;;;;5017714;28;20199;-71
2021/10/11 08:51:15;;;;;;;0.70;0.70;;;9.50;99.90;;;;;;5017232;28;20207;-71
2021/10/11 08:53:40;;;;;;;0.50;0.50;;;9.90;99.90;;;;;;5033851;28;20576;-71
2021/10/11 08:56:06;;;;;;;0.90;0.90;;;10.30;99.90;;;;;;5032198;28;20205;-71
2021/10/11 08:58:47;;;;;;;0.60;0.60;;;10.50;99.90;;;;;;5033031;28;20274;-71
2021/10/11 09:01:13;;;;;;;0.75;0.75;;;10.60;99.90;;;;;;5017381;28;20246;-72
2021/10/11 09:03:40;;;;;;;0.65;0.63;;;10.80;99.90;;;;;;5044893;28;20229;-71
2021/10/11 09:06:10;;;;;;;0.52;0.52;;;10.90;99.90;;;;;;5041157;28;20209;-73
2021/10/11 09:08:37;;;;;;;0.60;0.60;;;10.70;99.90;;;;;;5048954;28;20348;-71
2021/10/11 09:11:05;;;;;;;0.63;0.63;;;10.70;99.90;;;;;;5042523;28;20299;-71
2021/10/11 09:13:38;;;;;;;1.02;1.00;;;10.90;99.90;;;;;;5047296;28;20205;-71
2021/10/11 09:16:09;;;;;;;1.17;1.10;;;11.00;99.90;;;;;;5052668;28;20255;-71
2021/10/11 09:18:37;;;;;;;0.50;0.50;;;11.00;99.90;;;;;;5051724;28;20206;-71
2021/10/11 09:21:03;;;;;;;0.60;0.60;;;11.30;99.90;;;;;;5035195;28;20209;-71
2021/10/11 09:23:30;;;;;;;1.75;0.80;;;11.50;99.90;;;;;;5051168;28;20204;-72
2021/10/11 09:25:57;;;;;;;0.82;0.82;;;11.70;99.90;;;;;;5053574;28;20240;-71
2021/10/11 09:28:25;;;;;;;0.60;0.60;;;12.00;99.90;;;;;;5046957;28;20248;-71
2021/10/11 09:30:51;;;;;;;0.60;0.60;;;12.20;99.90;;;;;;5023700;28;20202;-71
2021/10/11 09:33:20;;;;;;;0.60;0.60;;;12.20;99.90;;;;;;5049342;28;20214;-71
2021/10/11 09:35:47;;;;;;;12.75;2.63;;;12.30;99.90;;;;;;5040866;28;20231;-71
2021/10/11 09:38:39;;;;;;;0.70;0.70;;;12.50;99.90;;;;;;5052135;28;20209;-71
2021/10/11 09:41:04;;;;;;;1.55;0.80;;;12.60;99.90;;;;;;5044039;28;20296;-72
2021/10/11 09:43:30;;;;;;;0.50;0.50;;;12.70;99.90;;;;;;5039686;28;20304;-71
2021/10/11 09:46:09;;;;;;;0.77;0.77;;;12.60;99.90;;;;;;5049931;28;20729;-72
2021/10/11 09:48:46;;;;;;;0.73;0.70;;;12.70;99.90;;;;;;5039627;28;20189;-71
2021/10/11 09:51:11;;;;;;;1.05;1.05;;;12.80;99.90;;;;;;5052059;28;20215;-71
2021/10/11 09:53:37;;;;;;;0.63;0.63;;;13.00;99.90;;;;;;5051377;28;20201;-71
2021/10/11 09:56:03;;;;;;;0.73;0.73;;;12.90;99.90;;;;;;5053273;28;20217;-71
2021/10/11 09:58:30;;;;;;;1.55;1.45;;;12.50;99.90;;;;;;5052783;28;20219;-71
2021/10/11 10:00:56;;;;;;;0.52;0.52;;;12.80;99.90;;;;;;5051915;28;20209;-72
2021/10/11 10:03:22;;;;;;;0.50;0.50;;;13.10;99.90;;;;;;5050993;28;20761;-71
2021/10/11 10:05:50;;;;;;;0.47;0.47;;;13.10;99.90;;;;;;5053258;28;20276;-71
2021/10/11 10:08:22;;;;;;;0.50;0.50;;;13.20;99.90;;;;;;5034418;28;20708;-71
2021/10/11 10:10:52;;;;;;;0.50;0.50;;;13.30;99.90;;;;;;5017854;28;20688;-70
2021/10/11 10:13:21;;;;;;;0.75;0.75;;;13.30;99.90;;;;;;5051225;28;20209;-70
2021/10/11 10:15:48;;;;;;;4.60;1.52;;;13.30;99.90;;;;;;5033608;28;20225;-70
2021/10/11 10:18:18;;;;;;;0.50;0.50;;;13.30;99.90;;;;;;5037083;28;20700;-70
2021/10/11 10:20:55;;;;;;;0.65;0.65;;;13.60;99.90;;;;;;5048442;28;20213;-70
2021/10/11 10:23:33;;;;;;;0.90;0.90;;;13.70;99.90;;;;;;5037076;28;20212;-71
2021/10/11 10:26:02;;;;;;;0.77;0.63;;;13.80;99.90;;;;;;5051072;28;20251;-70
2021/10/11 10:28:43;;;;;;;0.65;0.65;;;13.70;99.90;;;;;;5051037;28;20210;-71
2021/10/11 10:31:09;;;;;;;0.77;0.77;;;13.80;99.90;;;;;;5051782;28;20233;-70
2021/10/11 10:33:41;;;;;;;0.40;0.40;;;13.90;99.90;;;;;;5050993;28;20237;-70
2021/10/11 10:36:21;;;;;;;0.55;0.55;;;14.10;99.90;;;;;;5034273;28;20685;-70
2021/10/11 10:39:08;;;;;;;1.92;1.05;;;14.10;99.90;;;;;;5052716;28;20656;-71
2021/10/11 10:41:36;;;;;;;0.50;0.50;;;14.20;99.90;;;;;;5035176;28;20263;-70
2021/10/11 10:44:20;;;;;;;0.60;0.60;;;14.50;99.90;;;;;;5052012;28;20209;-71
2021/10/11 10:47:04;;;;;;;1.45;0.90;;;14.70;99.90;;;;;;5033882;28;20285;-71
2021/10/11 10:49:31;;;;;;;0.43;0.43;;;15.00;99.90;;;;;;5050394;28;20193;-70
2021/10/11 10:51:57;;;;;;;0.40;0.40;;;14.70;99.90;;;;;;5036442;28;20198;-71
2021/10/11 10:54:41;;;;;;;0.60;0.60;;;14.80;99.90;;;;;;5051429;28;20617;-70
2021/10/11 10:57:09;;;;;;;0.60;0.60;;;14.70;99.90;;;;;;5050302;28;20202;-70
2021/10/11 10:59:35;;;;;;;0.50;0.50;;;14.50;99.90;;;;;;5034466;28;20198;-71
2021/10/11 11:02:09;;;;;;;0.73;0.73;;;14.60;99.90;;;;;;5052116;28;20198;-70
2021/10/11 11:04:36;;;;;;;1.75;0.90;;;14.80;99.90;;;;;;5032434;28;20208;-70
2021/10/11 11:07:06;;;;;;;0.40;0.40;;;14.90;99.90;;;;;;5047971;28;20577;-71
2021/10/11 11:09:46;;;;;;;0.60;0.60;;;14.60;99.90;;;;;;5016350;28;20221;-70
2021/10/11 11:12:14;;;;;;;0.50;0.50;;;14.40;99.90;;;;;;5015119;28;20212;-71
2021/10/11 11:14:44;;;;;;;0.50;0.50;;;14.50;99.90;;;;;;5028124;28;20668;-70
2021/10/11 11:17:14;;;;;;;0.40;0.40;;;14.30;99.90;;;;;;5034693;28;20213;-71
2021/10/11 11:19:42;;;;;;;0.50;0.50;;;14.50;99.90;;;;;;5030121;28;20312;-70
2021/10/11 11:22:13;;;;;;;0.57;0.57;;;14.60;99.90;;;;;;5044670;28;20686;-70
2021/10/11 11:24:51;;;;;;;0.40;0.40;;;14.70;99.90;;;;;;5036443;28;20208;-70
2021/10/11 11:27:46;;;;;;;0.50;0.50;;;14.80;99.90;;;;;;5033162;28;20210;-70
2021/10/11 11:30:14;;;;;;;0.50;0.50;;;14.30;99.90;;;;;;5002559;28;20592;-70
2021/10/11 11:32:53;;;;;;;0.50;0.50;;;14.00;99.90;;;;;;5047155;28;20675;-70
2021/10/11 11:35:52;;;;;;;0.50;0.50;;;13.80;99.90;;;;;;5030484;28;20267;-71
2021/10/11 11:38:20;;;;;;;0.50;0.50;;;13.60;99.90;;;;;;5027937;28;20214;-71
2021/10/11 11:40:51;;;;;;;0.50;0.50;;;13.60;99.90;;;;;;5032920;28;20210;-71
2021/10/11 11:43:17;;;;;;;0.57;0.57;;;14.00;99.90;;;;;;5048314;28;20205;-71
2021/10/11 11:45:45;;;;;;;0.50;0.50;;;14.30;99.90;;;;;;5032805;28;20209;-71
2021/10/11 11:48:17;;;;;;;0.50;0.50;;;14.60;99.90;;;;;;5047028;28;20794;-71
2021/10/11 11:50:44;;;;;;;0.80;0.80;;;15.00;99.90;;;;;;5047941;28;20665;-71
2021/10/11 11:53:15;;;;;;;0.40;0.40;;;15.20;99.90;;;;;;5048363;28;20673;-71
2021/10/11 11:55:45;;;;;;;0.63;0.63;;;15.30;99.90;;;;;;5047975;28;20691;-71
2021/10/11 11:58:13;;;;;;;0.40;0.40;;;15.50;99.90;;;;;;5047816;28;20647;-71
2021/10/11 12:00:44;;;;;;;0.75;0.50;;;15.70;99.90;;;;;;5046155;28;20216;-70
2021/10/11 12:03:11;;;;;;;0.50;0.50;;;15.10;99.90;;;;;;5055981;28;20644;-70
2021/10/11 12:05:37;;;;;;;0.40;0.40;;;14.70;99.90;;;;;;5055451;28;20580;-71
2021/10/11 12:08:04;;;;;;;0.43;0.43;;;14.40;99.90;;;;;;5051416;28;20216;-71
2021/10/11 12:10:31;;;;;;;0.40;0.40;;;14.00;99.90;;;;;;5037924;28;20388;-71
2021/10/11 12:13:00;;;;;;;0.50;0.50;;;13.70;99.90;;;;;;5054012;28;20679;-71
2021/10/11 12:15:27;;;;;;;0.50;0.50;;;13.80;99.90;;;;;;5045117;28;20213;-71
2021/10/11 12:18:08;;;;;;;0.50;0.50;;;13.80;99.90;;;;;;5045215;28;20291;-71
2021/10/11 12:20:50;;;;;;;0.43;0.43;;;13.90;99.90;;;;;;5045287;28;20205;-71
2021/10/11 12:23:17;;;;;;;0.50;0.50;;;14.20;99.90;;;;;;5046709;28;20204;-71
2021/10/11 12:25:44;;;;;;;0.60;0.60;;;14.50;99.90;;;;;;5044653;28;20224;-71
2021/10/11 12:28:17;;;;;;;0.50;0.50;;;14.70;99.90;;;;;;5043455;28;20201;-71
2021/10/11 12:30:45;;;;;;;2.85;0.98;;;14.50;99.90;;;;;;5052677;28;20232;-71
2021/10/11 12:33:13;;;;;;;0.40;0.40;;;14.40;99.90;;;;;;5052708;28;20197;-70
2021/10/11 12:35:40;;;;;;;0.50;0.50;;;14.60;99.90;;;;;;5036710;28;20212;-71
2021/10/11 12:38:08;;;;;;;0.55;0.55;;;14.80;99.90;;;;;;5050119;28;20202;-71
2021/10/11 12:40:33;;;;;;;0.70;0.70;;;14.90;99.90;;;;;;5038693;28;20312;-71
2021/10/11 12:43:14;;;;;;;0.63;0.50;;;15.10;99.90;;;;;;5036881;28;20182;-70
2021/10/11 12:45:40;;;;;;;0.70;0.70;;;15.60;99.90;;;;;;5042118;28;20204;-71
2021/10/11 12:48:06;;;;;;;0.50;0.50;;;15.80;99.90;;;;;;5051893;28;20560;-71
2021/10/11 12:50:32;;;;;;;0.32;0.32;;;15.70;99.90;;;;;;5051921;28;20257;-70
2021/10/11 12:52:58;;;;;;;0.40;0.40;;;15.50;99.90;;;;;;5036772;28;20565;-71
2021/10/11 12:55:25;;;;;;;0.40;0.40;;;15.30;99.90;;;;;;5054349;28;20695;-71